sensor_id;sensor_type;location;lat;lon;timestamp;temperature;humidity
546;DHT22;259;53.304;9.816;2024-03-02T00:00:12;15.10;85.70
546;DHT22;259;53.304;9.816;2024-03-02T00:02:45;15.10;85.90
546;DHT22;259;53.304;9.816;2024-03-02T00:05:13;15.10;85.90
546;DHT22;259;53.304;9.816;2024-03-02T00:07:44;15.10;85.90
546;DHT22;259;53.304;9.816;2024-03-02T00:10:16;15.10;86.00
546;DHT22;259;53.304;9.816;2024-03-02T00:12:47;15.00;85.90
546;DHT22;259;53.304;9.816;2024-03-02T00:18:13;15.00;85.90
546;DHT22;259;53.304;9.816;2024-03-02T00:20:43;15.00;85.90
546;DHT22;259;53.304;9.816;2024-03-02T00:23:10;15.00;85.90
546;DHT22;259;53.304;9.816;2024-03-02T00:25:43;15.00;85.90
546;DHT22;259;53.304;9.816;2024-03-02T00:28:21;15.00;85.90
546;DHT22;259;53.304;9.816;2024-03-02T00:33:22;15.00;85.90
546;DHT22;259;53.304;9.816;2024-03-02T00:35:49;15.00;86.00
546;DHT22;259;53.304;9.816;2024-03-02T00:38:15;15.00;86.00
546;DHT22;259;53.304;9.816;2024-03-02T00:40:44;14.90;86.10
546;DHT22;259;53.304;9.816;2024-03-02T00:43:41;14.90;86.20
546;DHT22;259;53.304;9.816;2024-03-02T00:46:15;14.90;86.10
546;DHT22;259;53.304;9.816;2024-03-02T00:48:55;14.90;86.30
546;DHT22;259;53.304;9.816;2024-03-02T00:51:23;14.90;86.30
546;DHT22;259;53.304;9.816;2024-03-02T00:53:53;14.80;86.20
546;DHT22;259;53.304;9.816;2024-03-02T00:56:24;14.80;86.20
546;DHT22;259;53.304;9.816;2024-03-02T00:58:50;14.80;86.20
546;DHT22;259;53.304;9.816;2024-03-02T01:01:16;14.80;86.30
546;DHT22;259;53.304;9.816;2024-03-02T01:03:43;14.80;86.40
546;DHT22;259;53.304;9.816;2024-03-02T01:06:09;14.80;86.50
546;DHT22;259;53.304;9.816;2024-03-02T01:08:38;14.80;86.50
546;DHT22;259;53.304;9.816;2024-03-02T01:11:04;14.80;86.50
546;DHT22;259;53.304;9.816;2024-03-02T01:13:31;14.70;86.50
546;DHT22;259;53.304;9.816;2024-03-02T01:15:57;14.70;86.60
546;DHT22;259;53.304;9.816;2024-03-02T01:18:23;14.70;86.50
546;DHT22;259;53.304;9.816;2024-03-02T01:20:50;14.70;86.60
546;DHT22;259;53.304;9.816;2024-03-02T01:23:21;14.70;86.70
546;DHT22;259;53.304;9.816;2024-03-02T01:25:47;14.60;86.70
546;DHT22;259;53.304;9.816;2024-03-02T01:28:14;14.70;86.80
546;DHT22;259;53.304;9.816;2024-03-02T01:30:40;14.60;86.90
546;DHT22;259;53.304;9.816;2024-03-02T01:33:06;14.60;86.90
546;DHT22;259;53.304;9.816;2024-03-02T01:35:32;14.60;86.90
546;DHT22;259;53.304;9.816;2024-03-02T01:37:58;14.60;87.00
546;DHT22;259;53.304;9.816;2024-03-02T01:40:24;14.60;87.10
546;DHT22;259;53.304;9.816;2024-03-02T01:42:52;14.60;87.10
546;DHT22;259;53.304;9.816;2024-03-02T01:45:19;14.50;87.10
546;DHT22;259;53.304;9.816;2024-03-02T01:47:45;14.50;87.20
546;DHT22;259;53.304;9.816;2024-03-02T01:50:11;14.50;87.20
546;DHT22;259;53.304;9.816;2024-03-02T01:52:38;14.50;87.30
546;DHT22;259;53.304;9.816;2024-03-02T01:55:04;14.50;87.30
546;DHT22;259;53.304;9.816;2024-03-02T01:57:31;14.50;87.40
546;DHT22;259;53.304;9.816;2024-03-02T01:59:58;14.50;87.50
546;DHT22;259;53.304;9.816;2024-03-02T02:02:23;14.40;87.70
546;DHT22;259;53.304;9.816;2024-03-02T02:04:49;14.40;87.50
546;DHT22;259;53.304;9.816;2024-03-02T02:07:15;14.40;87.50
546;DHT22;259;53.304;9.816;2024-03-02T02:09:41;14.40;87.60
546;DHT22;259;53.304;9.816;2024-03-02T02:12:09;14.40;87.70
546;DHT22;259;53.304;9.816;2024-03-02T02:14:35;14.40;87.70
546;DHT22;259;53.304;9.816;2024-03-02T02:17:01;14.40;87.80
546;DHT22;259;53.304;9.816;2024-03-02T02:19:27;14.30;87.70
546;DHT22;259;53.304;9.816;2024-03-02T02:21:53;14.30;87.80
546;DHT22;259;53.304;9.816;2024-03-02T02:24:18;14.30;87.80
546;DHT22;259;53.304;9.816;2024-03-02T02:26:44;14.30;87.90
546;DHT22;259;53.304;9.816;2024-03-02T02:29:10;14.30;87.80
546;DHT22;259;53.304;9.816;2024-03-02T02:31:39;14.30;87.80
546;DHT22;259;53.304;9.816;2024-03-02T02:34:05;14.30;88.00
546;DHT22;259;53.304;9.816;2024-03-02T02:36:34;14.30;88.00
546;DHT22;259;53.304;9.816;2024-03-02T02:39:03;14.30;88.00
546;DHT22;259;53.304;9.816;2024-03-02T02:41:30;14.20;88.00
546;DHT22;259;53.304;9.816;2024-03-02T02:43:56;14.20;88.10
546;DHT22;259;53.304;9.816;2024-03-02T02:46:21;14.20;88.20
546;DHT22;259;53.304;9.816;2024-03-02T02:48:47;14.20;88.20
546;DHT22;259;53.304;9.816;2024-03-02T02:51:13;14.20;88.30
546;DHT22;259;53.304;9.816;2024-03-02T02:53:39;14.20;88.30
546;DHT22;259;53.304;9.816;2024-03-02T02:56:06;14.10;88.30
546;DHT22;259;53.304;9.816;2024-03-02T02:58:32;14.20;88.40
546;DHT22;259;53.304;9.816;2024-03-02T03:00:58;14.10;88.40
546;DHT22;259;53.304;9.816;2024-03-02T03:03:24;14.10;88.40
546;DHT22;259;53.304;9.816;2024-03-02T03:05:49;14.10;88.50
546;DHT22;259;53.304;9.816;2024-03-02T03:08:15;14.10;88.40
546;DHT22;259;53.304;9.816;2024-03-02T03:10:41;14.10;88.60
546;DHT22;259;53.304;9.816;2024-03-02T03:13:07;14.10;88.60
546;DHT22;259;53.304;9.816;2024-03-02T03:15:37;14.00;89.20
546;DHT22;259;53.304;9.816;2024-03-02T03:18:04;14.10;88.60
546;DHT22;259;53.304;9.816;2024-03-02T03:20:30;14.00;88.60
546;DHT22;259;53.304;9.816;2024-03-02T03:22:59;14.00;88.60
546;DHT22;259;53.304;9.816;2024-03-02T03:25:25;14.00;88.60
546;DHT22;259;53.304;9.816;2024-03-02T03:27:51;14.00;88.70
546;DHT22;259;53.304;9.816;2024-03-02T03:30:19;14.00;88.60
546;DHT22;259;53.304;9.816;2024-03-02T03:32:45;14.00;88.70
546;DHT22;259;53.304;9.816;2024-03-02T03:35:11;14.00;88.80
546;DHT22;259;53.304;9.816;2024-03-02T03:37:38;14.00;88.80
546;DHT22;259;53.304;9.816;2024-03-02T03:40:04;14.00;88.80
546;DHT22;259;53.304;9.816;2024-03-02T03:42:37;14.00;88.90
546;DHT22;259;53.304;9.816;2024-03-02T03:45:03;14.00;88.80
546;DHT22;259;53.304;9.816;2024-03-02T03:47:31;14.00;88.90
546;DHT22;259;53.304;9.816;2024-03-02T03:49:57;13.90;88.70
546;DHT22;259;53.304;9.816;2024-03-02T03:52:23;13.90;88.90
546;DHT22;259;53.304;9.816;2024-03-02T03:54:49;13.90;88.80
546;DHT22;259;53.304;9.816;2024-03-02T03:57:15;13.90;89.70
546;DHT22;259;53.304;9.816;2024-03-02T03:59:42;13.90;89.10
546;DHT22;259;53.304;9.816;2024-03-02T04:02:08;13.90;89.20
546;DHT22;259;53.304;9.816;2024-03-02T04:04:34;13.80;89.10
546;DHT22;259;53.304;9.816;2024-03-02T04:07:00;13.80;89.20
546;DHT22;259;53.304;9.816;2024-03-02T04:09:26;13.80;89.20
546;DHT22;259;53.304;9.816;2024-03-02T04:11:52;13.80;89.30
546;DHT22;259;53.304;9.816;2024-03-02T04:14:18;13.80;89.40
546;DHT22;259;53.304;9.816;2024-03-02T04:16:44;13.80;89.30
546;DHT22;259;53.304;9.816;2024-03-02T04:19:09;13.80;89.40
546;DHT22;259;53.304;9.816;2024-03-02T04:21:35;13.80;89.40
546;DHT22;259;53.304;9.816;2024-03-02T04:24:01;13.80;89.40
546;DHT22;259;53.304;9.816;2024-03-02T04:26:27;13.80;89.50
546;DHT22;259;53.304;9.816;2024-03-02T04:28:53;13.70;89.40
546;DHT22;259;53.304;9.816;2024-03-02T04:31:19;13.80;89.60
546;DHT22;259;53.304;9.816;2024-03-02T04:33:45;13.70;89.50
546;DHT22;259;53.304;9.816;2024-03-02T04:36:11;13.70;89.60
546;DHT22;259;53.304;9.816;2024-03-02T04:38:39;13.70;89.70
546;DHT22;259;53.304;9.816;2024-03-02T04:41:06;13.70;89.90
546;DHT22;259;53.304;9.816;2024-03-02T04:43:32;13.70;89.90
546;DHT22;259;53.304;9.816;2024-03-02T04:46:01;13.60;89.70
546;DHT22;259;53.304;9.816;2024-03-02T04:48:27;13.70;90.30
546;DHT22;259;53.304;9.816;2024-03-02T04:50:52;13.70;89.70
546;DHT22;259;53.304;9.816;2024-03-02T04:53:18;13.60;89.90
546;DHT22;259;53.304;9.816;2024-03-02T04:55:44;13.60;90.00
546;DHT22;259;53.304;9.816;2024-03-02T04:58:09;13.60;90.00
546;DHT22;259;53.304;9.816;2024-03-02T05:00:35;13.60;90.00
546;DHT22;259;53.304;9.816;2024-03-02T05:03:02;13.60;90.00
546;DHT22;259;53.304;9.816;2024-03-02T05:05:28;13.60;90.10
546;DHT22;259;53.304;9.816;2024-03-02T05:07:53;13.60;90.10
546;DHT22;259;53.304;9.816;2024-03-02T05:10:19;13.50;90.10
546;DHT22;259;53.304;9.816;2024-03-02T05:12:45;13.50;90.10
546;DHT22;259;53.304;9.816;2024-03-02T05:15:13;13.50;90.10
546;DHT22;259;53.304;9.816;2024-03-02T05:17:40;13.50;90.20
546;DHT22;259;53.304;9.816;2024-03-02T05:20:09;13.50;90.10
546;DHT22;259;53.304;9.816;2024-03-02T05:22:36;13.50;90.10
546;DHT22;259;53.304;9.816;2024-03-02T05:25:02;13.50;90.10
546;DHT22;259;53.304;9.816;2024-03-02T05:27:29;13.50;90.20
546;DHT22;259;53.304;9.816;2024-03-02T05:29:54;13.50;90.20
546;DHT22;259;53.304;9.816;2024-03-02T05:32:20;13.50;90.30
546;DHT22;259;53.304;9.816;2024-03-02T05:34:46;13.40;90.20
546;DHT22;259;53.304;9.816;2024-03-02T05:37:11;13.40;90.20
546;DHT22;259;53.304;9.816;2024-03-02T05:39:37;13.40;90.20
546;DHT22;259;53.304;9.816;2024-03-02T05:42:03;13.40;90.20
546;DHT22;259;53.304;9.816;2024-03-02T05:44:29;13.40;90.30
546;DHT22;259;53.304;9.816;2024-03-02T05:46:55;13.40;90.30
546;DHT22;259;53.304;9.816;2024-03-02T05:49:21;13.30;90.20
546;DHT22;259;53.304;9.816;2024-03-02T05:51:47;13.40;90.30
546;DHT22;259;53.304;9.816;2024-03-02T05:54:12;13.30;90.30
546;DHT22;259;53.304;9.816;2024-03-02T05:56:38;13.30;90.30
546;DHT22;259;53.304;9.816;2024-03-02T05:59:04;13.30;90.40
546;DHT22;259;53.304;9.816;2024-03-02T06:01:45;13.30;90.40
546;DHT22;259;53.304;9.816;2024-03-02T06:04:12;13.30;90.40
546;DHT22;259;53.304;9.816;2024-03-02T06:06:39;13.30;90.40
546;DHT22;259;53.304;9.816;2024-03-02T06:09:06;13.30;90.50
546;DHT22;259;53.304;9.816;2024-03-02T06:11:34;13.30;90.40
546;DHT22;259;53.304;9.816;2024-03-02T06:14:00;13.30;90.50
546;DHT22;259;53.304;9.816;2024-03-02T06:16:26;13.20;90.40
546;DHT22;259;53.304;9.816;2024-03-02T06:18:52;13.20;90.40
546;DHT22;259;53.304;9.816;2024-03-02T06:21:19;13.20;90.40
546;DHT22;259;53.304;9.816;2024-03-02T06:23:45;13.20;90.50
546;DHT22;259;53.304;9.816;2024-03-02T06:26:11;13.20;90.50
546;DHT22;259;53.304;9.816;2024-03-02T06:28:37;13.20;90.50
546;DHT22;259;53.304;9.816;2024-03-02T06:31:04;13.20;90.50
546;DHT22;259;53.304;9.816;2024-03-02T06:33:29;13.20;90.60
546;DHT22;259;53.304;9.816;2024-03-02T06:35:55;13.10;90.50
546;DHT22;259;53.304;9.816;2024-03-02T06:38:21;13.10;90.50
546;DHT22;259;53.304;9.816;2024-03-02T06:40:46;13.10;90.50
546;DHT22;259;53.304;9.816;2024-03-02T06:43:12;13.10;90.50
546;DHT22;259;53.304;9.816;2024-03-02T06:45:38;13.10;90.60
546;DHT22;259;53.304;9.816;2024-03-02T06:48:04;13.10;90.60
546;DHT22;259;53.304;9.816;2024-03-02T06:50:30;13.10;90.60
546;DHT22;259;53.304;9.816;2024-03-02T06:52:56;13.10;90.60
546;DHT22;259;53.304;9.816;2024-03-02T06:55:22;13.10;90.70
546;DHT22;259;53.304;9.816;2024-03-02T06:57:50;13.10;90.60
546;DHT22;259;53.304;9.816;2024-03-02T07:00:16;13.00;90.60
546;DHT22;259;53.304;9.816;2024-03-02T07:02:43;13.00;90.60
546;DHT22;259;53.304;9.816;2024-03-02T07:05:10;13.00;90.60
546;DHT22;259;53.304;9.816;2024-03-02T07:07:36;13.00;90.60
546;DHT22;259;53.304;9.816;2024-03-02T07:10:05;13.00;90.70
546;DHT22;259;53.304;9.816;2024-03-02T07:12:32;13.00;90.70
546;DHT22;259;53.304;9.816;2024-03-02T07:14:58;13.00;90.60
546;DHT22;259;53.304;9.816;2024-03-02T07:17:30;13.00;90.70
546;DHT22;259;53.304;9.816;2024-03-02T07:19:57;13.00;90.60
546;DHT22;259;53.304;9.816;2024-03-02T07:22:23;13.00;90.70
546;DHT22;259;53.304;9.816;2024-03-02T07:24:49;13.00;90.70
546;DHT22;259;53.304;9.816;2024-03-02T07:27:16;13.00;90.70
546;DHT22;259;53.304;9.816;2024-03-02T07:29:43;13.00;90.80
546;DHT22;259;53.304;9.816;2024-03-02T07:32:09;13.00;90.80
546;DHT22;259;53.304;9.816;2024-03-02T07:34:35;12.90;90.70
546;DHT22;259;53.304;9.816;2024-03-02T07:37:01;12.90;90.80
546;DHT22;259;53.304;9.816;2024-03-02T07:39:27;12.90;90.70
546;DHT22;259;53.304;9.816;2024-03-02T07:41:53;12.90;90.80
546;DHT22;259;53.304;9.816;2024-03-02T07:44:19;12.90;90.80
546;DHT22;259;53.304;9.816;2024-03-02T07:46:46;12.90;90.80
546;DHT22;259;53.304;9.816;2024-03-02T07:49:13;12.90;90.80
546;DHT22;259;53.304;9.816;2024-03-02T07:51:41;12.90;90.90
546;DHT22;259;53.304;9.816;2024-03-02T07:54:07;12.90;90.80
546;DHT22;259;53.304;9.816;2024-03-02T07:56:33;12.90;90.90
546;DHT22;259;53.304;9.816;2024-03-02T07:59:00;12.90;90.90
546;DHT22;259;53.304;9.816;2024-03-02T08:01:28;12.80;90.80
546;DHT22;259;53.304;9.816;2024-03-02T08:03:57;12.90;90.90
546;DHT22;259;53.304;9.816;2024-03-02T08:06:27;12.80;90.90
546;DHT22;259;53.304;9.816;2024-03-02T08:08:54;12.80;90.90
546;DHT22;259;53.304;9.816;2024-03-02T08:11:21;12.80;90.90
546;DHT22;259;53.304;9.816;2024-03-02T08:13:47;12.80;90.90
546;DHT22;259;53.304;9.816;2024-03-02T08:16:17;12.80;90.90
546;DHT22;259;53.304;9.816;2024-03-02T08:18:49;12.80;90.90
546;DHT22;259;53.304;9.816;2024-03-02T08:21:15;12.80;90.90
546;DHT22;259;53.304;9.816;2024-03-02T08:23:42;12.80;90.90
546;DHT22;259;53.304;9.816;2024-03-02T08:26:11;12.80;90.90
546;DHT22;259;53.304;9.816;2024-03-02T08:28:37;12.80;91.00
546;DHT22;259;53.304;9.816;2024-03-02T08:31:04;12.80;91.00
546;DHT22;259;53.304;9.816;2024-03-02T08:33:29;12.80;91.00
546;DHT22;259;53.304;9.816;2024-03-02T08:35:56;12.80;91.00
546;DHT22;259;53.304;9.816;2024-03-02T08:38:22;12.80;91.00
546;DHT22;259;53.304;9.816;2024-03-02T08:40:49;12.80;91.00
546;DHT22;259;53.304;9.816;2024-03-02T08:43:15;12.80;91.00
546;DHT22;259;53.304;9.816;2024-03-02T08:45:41;12.70;91.00
546;DHT22;259;53.304;9.816;2024-03-02T08:48:10;12.70;90.90
546;DHT22;259;53.304;9.816;2024-03-02T08:50:36;12.70;91.00
546;DHT22;259;53.304;9.816;2024-03-02T08:53:03;12.70;91.00
546;DHT22;259;53.304;9.816;2024-03-02T08:55:29;12.70;91.00
546;DHT22;259;53.304;9.816;2024-03-02T08:57:55;12.70;91.10
546;DHT22;259;53.304;9.816;2024-03-02T09:00:21;12.70;91.10
546;DHT22;259;53.304;9.816;2024-03-02T09:02:47;12.70;91.00
546;DHT22;259;53.304;9.816;2024-03-02T09:05:13;12.70;91.10
546;DHT22;259;53.304;9.816;2024-03-02T09:07:39;12.70;91.00
546;DHT22;259;53.304;9.816;2024-03-02T09:10:06;12.70;91.00
546;DHT22;259;53.304;9.816;2024-03-02T09:12:32;12.70;91.00
546;DHT22;259;53.304;9.816;2024-03-02T09:14:59;12.70;91.10
546;DHT22;259;53.304;9.816;2024-03-02T09:17:25;12.70;91.00
546;DHT22;259;53.304;9.816;2024-03-02T09:19:51;12.70;91.00
546;DHT22;259;53.304;9.816;2024-03-02T09:22:18;12.70;91.00
546;DHT22;259;53.304;9.816;2024-03-02T09:24:44;12.70;91.00
546;DHT22;259;53.304;9.816;2024-03-02T09:27:10;12.70;91.00
546;DHT22;259;53.304;9.816;2024-03-02T09:29:36;12.70;91.10
546;DHT22;259;53.304;9.816;2024-03-02T09:32:02;12.70;91.10
546;DHT22;259;53.304;9.816;2024-03-02T09:34:27;12.70;91.00
546;DHT22;259;53.304;9.816;2024-03-02T09:36:53;12.70;91.10
546;DHT22;259;53.304;9.816;2024-03-02T09:39:19;12.70;91.10
546;DHT22;259;53.304;9.816;2024-03-02T09:41:45;12.70;91.20
546;DHT22;259;53.304;9.816;2024-03-02T09:44:11;12.60;91.10
546;DHT22;259;53.304;9.816;2024-03-02T09:46:36;12.60;91.10
546;DHT22;259;53.304;9.816;2024-03-02T09:49:02;12.60;91.00
546;DHT22;259;53.304;9.816;2024-03-02T09:51:28;12.60;91.10
546;DHT22;259;53.304;9.816;2024-03-02T09:53:55;12.60;91.00
546;DHT22;259;53.304;9.816;2024-03-02T09:56:21;12.70;91.00
546;DHT22;259;53.304;9.816;2024-03-02T09:58:47;12.70;91.10
546;DHT22;259;53.304;9.816;2024-03-02T10:01:13;12.70;91.10
546;DHT22;259;53.304;9.816;2024-03-02T10:03:39;12.60;91.10
546;DHT22;259;53.304;9.816;2024-03-02T10:06:22;12.70;91.00
546;DHT22;259;53.304;9.816;2024-03-02T10:08:49;12.70;91.00
546;DHT22;259;53.304;9.816;2024-03-02T10:14:06;12.70;91.00
546;DHT22;259;53.304;9.816;2024-03-02T10:16:43;12.80;91.50
546;DHT22;259;53.304;9.816;2024-03-02T10:19:25;12.80;91.50
546;DHT22;259;53.304;9.816;2024-03-02T10:21:53;12.80;91.60
546;DHT22;259;53.304;9.816;2024-03-02T10:24:21;12.80;91.30
546;DHT22;259;53.304;9.816;2024-03-02T10:26:47;12.80;91.30
546;DHT22;259;53.304;9.816;2024-03-02T10:29:16;12.90;92.70
546;DHT22;259;53.304;9.816;2024-03-02T10:31:44;12.90;92.50
546;DHT22;259;53.304;9.816;2024-03-02T10:34:13;13.00;92.70
546;DHT22;259;53.304;9.816;2024-03-02T10:36:43;12.90;92.30
546;DHT22;259;53.304;9.816;2024-03-02T10:39:13;12.90;91.90
546;DHT22;259;53.304;9.816;2024-03-02T10:41:40;12.90;92.10
546;DHT22;259;53.304;9.816;2024-03-02T10:44:07;12.90;91.80
546;DHT22;259;53.304;9.816;2024-03-02T10:46:35;12.80;91.70
546;DHT22;259;53.304;9.816;2024-03-02T10:49:03;12.80;91.70
546;DHT22;259;53.304;9.816;2024-03-02T10:51:31;12.90;91.60
546;DHT22;259;53.304;9.816;2024-03-02T10:53:59;12.90;91.80
546;DHT22;259;53.304;9.816;2024-03-02T10:56:31;13.00;91.90
546;DHT22;259;53.304;9.816;2024-03-02T11:01:39;13.00;90.50
546;DHT22;259;53.304;9.816;2024-03-02T11:04:08;13.10;91.70
546;DHT22;259;53.304;9.816;2024-03-02T11:06:36;13.00;91.30
546;DHT22;259;53.304;9.816;2024-03-02T11:09:07;13.10;91.20
546;DHT22;259;53.304;9.816;2024-03-02T11:11:39;13.10;91.00
546;DHT22;259;53.304;9.816;2024-03-02T11:14:07;13.10;91.00
546;DHT22;259;53.304;9.816;2024-03-02T11:16:38;13.20;91.00
546;DHT22;259;53.304;9.816;2024-03-02T11:19:08;13.20;90.90
546;DHT22;259;53.304;9.816;2024-03-02T11:21:36;13.20;90.90
546;DHT22;259;53.304;9.816;2024-03-02T11:24:28;13.30;91.00
546;DHT22;259;53.304;9.816;2024-03-02T11:27:04;13.20;90.80
546;DHT22;259;53.304;9.816;2024-03-02T11:32:14;13.30;90.80
546;DHT22;259;53.304;9.816;2024-03-02T11:34:42;13.30;92.30
546;DHT22;259;53.304;9.816;2024-03-02T11:37:13;13.50;92.40
546;DHT22;259;53.304;9.816;2024-03-02T11:39:44;13.60;93.60
546;DHT22;259;53.304;9.816;2024-03-02T11:42:12;13.70;96.90
546;DHT22;259;53.304;9.816;2024-03-02T11:44:42;13.80;96.60
546;DHT22;259;53.304;9.816;2024-03-02T11:47:11;13.80;95.20
546;DHT22;259;53.304;9.816;2024-03-02T11:49:42;13.70;94.00
546;DHT22;259;53.304;9.816;2024-03-02T11:52:15;13.70;92.80
546;DHT22;259;53.304;9.816;2024-03-02T11:54:45;13.60;92.20
546;DHT22;259;53.304;9.816;2024-03-02T11:57:32;13.60;92.00
546;DHT22;259;53.304;9.816;2024-03-02T11:59:58;13.60;91.70
546;DHT22;259;53.304;9.816;2024-03-02T12:02:24;13.60;91.50
546;DHT22;259;53.304;9.816;2024-03-02T12:04:50;13.50;91.50
546;DHT22;259;53.304;9.816;2024-03-02T12:07:20;13.50;92.30
546;DHT22;259;53.304;9.816;2024-03-02T12:09:59;13.60;93.00
546;DHT22;259;53.304;9.816;2024-03-02T12:12:26;13.70;93.30
546;DHT22;259;53.304;9.816;2024-03-02T12:14:53;13.70;92.80
546;DHT22;259;53.304;9.816;2024-03-02T12:17:22;13.80;92.80
546;DHT22;259;53.304;9.816;2024-03-02T12:19:48;13.80;93.00
546;DHT22;259;53.304;9.816;2024-03-02T12:22:14;13.90;92.80
546;DHT22;259;53.304;9.816;2024-03-02T12:24:44;13.90;92.50
546;DHT22;259;53.304;9.816;2024-03-02T12:27:15;13.90;92.80
546;DHT22;259;53.304;9.816;2024-03-02T12:29:41;14.00;92.40
546;DHT22;259;53.304;9.816;2024-03-02T12:32:07;14.00;92.40
546;DHT22;259;53.304;9.816;2024-03-02T12:34:33;14.00;92.00
546;DHT22;259;53.304;9.816;2024-03-02T12:36:59;14.10;92.00
546;DHT22;259;53.304;9.816;2024-03-02T12:39:25;14.20;91.60
546;DHT22;259;53.304;9.816;2024-03-02T12:41:51;14.20;91.50
546;DHT22;259;53.304;9.816;2024-03-02T12:44:19;14.20;91.00
546;DHT22;259;53.304;9.816;2024-03-02T12:46:46;14.30;91.20
546;DHT22;259;53.304;9.816;2024-03-02T12:49:14;14.30;91.40
546;DHT22;259;53.304;9.816;2024-03-02T12:51:42;14.40;91.30
546;DHT22;259;53.304;9.816;2024-03-02T12:54:08;14.50;90.90
546;DHT22;259;53.304;9.816;2024-03-02T12:56:36;14.50;90.50
546;DHT22;259;53.304;9.816;2024-03-02T12:59:03;14.60;90.20
546;DHT22;259;53.304;9.816;2024-03-02T13:01:29;14.60;90.00
546;DHT22;259;53.304;9.816;2024-03-02T13:03:57;14.70;89.30
546;DHT22;259;53.304;9.816;2024-03-02T13:06:24;14.70;88.80
546;DHT22;259;53.304;9.816;2024-03-02T13:08:50;14.80;88.60
546;DHT22;259;53.304;9.816;2024-03-02T13:11:16;14.80;89.10
546;DHT22;259;53.304;9.816;2024-03-02T13:13:42;14.80;89.20
546;DHT22;259;53.304;9.816;2024-03-02T13:16:11;14.90;88.80
546;DHT22;259;53.304;9.816;2024-03-02T13:18:41;14.90;88.20
546;DHT22;259;53.304;9.816;2024-03-02T13:21:08;14.90;88.00
546;DHT22;259;53.304;9.816;2024-03-02T13:23:34;15.20;89.00
546;DHT22;259;53.304;9.816;2024-03-02T13:26:00;15.30;86.90
546;DHT22;259;53.304;9.816;2024-03-02T13:28:26;15.30;87.10
546;DHT22;259;53.304;9.816;2024-03-02T13:30:52;15.40;86.50
546;DHT22;259;53.304;9.816;2024-03-02T13:33:18;15.40;87.40
546;DHT22;259;53.304;9.816;2024-03-02T13:35:51;15.40;87.20
546;DHT22;259;53.304;9.816;2024-03-02T13:38:20;15.50;87.70
546;DHT22;259;53.304;9.816;2024-03-02T13:40:46;15.50;86.80
546;DHT22;259;53.304;9.816;2024-03-02T13:43:16;15.60;90.00
546;DHT22;259;53.304;9.816;2024-03-02T13:45:42;15.60;88.80
546;DHT22;259;53.304;9.816;2024-03-02T13:48:08;15.70;93.60
546;DHT22;259;53.304;9.816;2024-03-02T13:50:33;16.10;94.60
546;DHT22;259;53.304;9.816;2024-03-02T13:52:59;16.10;94.20
546;DHT22;259;53.304;9.816;2024-03-02T13:55:25;16.20;95.10
546;DHT22;259;53.304;9.816;2024-03-02T13:57:51;16.30;99.90
546;DHT22;259;53.304;9.816;2024-03-02T14:00:19;16.40;97.30
546;DHT22;259;53.304;9.816;2024-03-02T14:02:45;16.50;97.30
546;DHT22;259;53.304;9.816;2024-03-02T14:05:12;16.50;95.30
546;DHT22;259;53.304;9.816;2024-03-02T14:07:39;16.60;93.80
546;DHT22;259;53.304;9.816;2024-03-02T14:10:05;16.60;93.10
546;DHT22;259;53.304;9.816;2024-03-02T14:12:31;16.70;92.40
546;DHT22;259;53.304;9.816;2024-03-02T14:14:56;16.80;91.80
546;DHT22;259;53.304;9.816;2024-03-02T14:17:27;16.80;91.20
546;DHT22;259;53.304;9.816;2024-03-02T14:19:53;16.90;90.70
546;DHT22;259;53.304;9.816;2024-03-02T14:22:22;16.90;90.20
546;DHT22;259;53.304;9.816;2024-03-02T14:24:48;17.00;89.80
546;DHT22;259;53.304;9.816;2024-03-02T14:27:14;17.00;89.20
546;DHT22;259;53.304;9.816;2024-03-02T14:29:43;17.00;88.60
546;DHT22;259;53.304;9.816;2024-03-02T14:32:09;17.00;88.30
546;DHT22;259;53.304;9.816;2024-03-02T14:34:35;17.10;87.90
546;DHT22;259;53.304;9.816;2024-03-02T14:37:00;17.10;87.40
546;DHT22;259;53.304;9.816;2024-03-02T14:39:26;17.10;87.10
546;DHT22;259;53.304;9.816;2024-03-02T14:41:52;17.20;86.80
546;DHT22;259;53.304;9.816;2024-03-02T14:44:18;17.20;86.40
546;DHT22;259;53.304;9.816;2024-03-02T14:46:46;17.30;86.10
546;DHT22;259;53.304;9.816;2024-03-02T14:49:13;17.30;85.60
546;DHT22;259;53.304;9.816;2024-03-02T14:51:39;17.30;85.40
546;DHT22;259;53.304;9.816;2024-03-02T14:54:04;17.40;85.10
546;DHT22;259;53.304;9.816;2024-03-02T14:56:30;17.40;85.00
546;DHT22;259;53.304;9.816;2024-03-02T14:58:56;17.40;84.70
546;DHT22;259;53.304;9.816;2024-03-02T15:01:22;17.40;84.60
546;DHT22;259;53.304;9.816;2024-03-02T15:03:51;17.40;84.60
546;DHT22;259;53.304;9.816;2024-03-02T15:06:16;17.40;84.40
546;DHT22;259;53.304;9.816;2024-03-02T15:08:43;17.40;84.30
546;DHT22;259;53.304;9.816;2024-03-02T15:11:10;17.40;84.20
546;DHT22;259;53.304;9.816;2024-03-02T15:13:36;17.40;84.10
546;DHT22;259;53.304;9.816;2024-03-02T15:16:02;17.40;84.80
546;DHT22;259;53.304;9.816;2024-03-02T15:18:28;17.40;83.90
546;DHT22;259;53.304;9.816;2024-03-02T15:20:54;17.40;83.70
546;DHT22;259;53.304;9.816;2024-03-02T15:23:19;17.40;83.80
546;DHT22;259;53.304;9.816;2024-03-02T15:25:45;17.40;83.80
546;DHT22;259;53.304;9.816;2024-03-02T15:28:11;17.40;84.50
546;DHT22;259;53.304;9.816;2024-03-02T15:30:37;17.40;83.50
546;DHT22;259;53.304;9.816;2024-03-02T15:33:02;17.40;83.50
546;DHT22;259;53.304;9.816;2024-03-02T15:35:28;17.40;83.50
546;DHT22;259;53.304;9.816;2024-03-02T15:37:54;17.40;83.50
546;DHT22;259;53.304;9.816;2024-03-02T15:40:20;17.40;83.50
546;DHT22;259;53.304;9.816;2024-03-02T15:42:46;17.40;83.50
546;DHT22;259;53.304;9.816;2024-03-02T15:45:11;17.40;83.50
546;DHT22;259;53.304;9.816;2024-03-02T15:47:37;17.40;83.50
546;DHT22;259;53.304;9.816;2024-03-02T15:50:03;17.40;83.50
546;DHT22;259;53.304;9.816;2024-03-02T15:52:30;17.40;83.40
546;DHT22;259;53.304;9.816;2024-03-02T15:54:55;17.40;83.40
546;DHT22;259;53.304;9.816;2024-03-02T15:57:21;17.40;83.30
546;DHT22;259;53.304;9.816;2024-03-02T15:59:48;17.40;83.30
546;DHT22;259;53.304;9.816;2024-03-02T16:02:15;17.40;83.30
546;DHT22;259;53.304;9.816;2024-03-02T16:04:41;17.40;83.20
546;DHT22;259;53.304;9.816;2024-03-02T16:07:07;17.40;83.30
546;DHT22;259;53.304;9.816;2024-03-02T16:09:33;17.40;83.20
546;DHT22;259;53.304;9.816;2024-03-02T16:11:58;17.40;83.10
546;DHT22;259;53.304;9.816;2024-03-02T16:14:24;17.40;83.10
546;DHT22;259;53.304;9.816;2024-03-02T16:16:50;17.40;83.00
546;DHT22;259;53.304;9.816;2024-03-02T16:19:16;17.50;83.90
546;DHT22;259;53.304;9.816;2024-03-02T16:21:41;17.50;83.60
546;DHT22;259;53.304;9.816;2024-03-02T16:24:08;17.40;83.80
546;DHT22;259;53.304;9.816;2024-03-02T16:26:34;17.40;87.90
546;DHT22;259;53.304;9.816;2024-03-02T16:28:59;17.30;92.10
546;DHT22;259;53.304;9.816;2024-03-02T16:31:25;17.30;90.00
546;DHT22;259;53.304;9.816;2024-03-02T16:33:51;17.30;86.30
546;DHT22;259;53.304;9.816;2024-03-02T16:36:17;17.20;85.60
546;DHT22;259;53.304;9.816;2024-03-02T16:38:43;17.20;83.40
546;DHT22;259;53.304;9.816;2024-03-02T16:41:09;17.10;82.40
546;DHT22;259;53.304;9.816;2024-03-02T16:43:35;17.10;93.40
546;DHT22;259;53.304;9.816;2024-03-02T16:46:00;17.10;85.50